Time;durP1;ratioP1;P1;durP2;ratioP2;P2;SDS_P1;SDS_P2;PMS_P1;PMS_P2;Temp;Humidity;BMP_temperature;BMP_pressure;BME280_temperature;BME280_humidity;BME280_pressure;Samples;Min_cycle;Max_cycle;Signal;HPM_P1;HPM_P2
2022/11/29 00:01:18;;;;;;;22.60;12.63;;;;;;;10.59;100.00;99874.31;5029731;28;20527;-71
2022/11/29 00:03:43;;;;;;;25.38;13.65;;;;;;;10.57;100.00;99883.28;5031327;28;20091;-71
2022/11/29 00:06:13;;;;;;;21.30;13.27;;;;;;;10.64;100.00;99896.31;5025794;28;20022;-71
2022/11/29 00:08:40;;;;;;;20.10;11.50;;;;;;;10.64;100.00;99898.97;5010099;28;20037;-71
2022/11/29 00:11:07;;;;;;;22.23;11.50;;;;;;;10.64;100.00;99892.81;5013928;28;20033;-71
2022/11/29 00:13:33;;;;;;;22.17;12.68;;;;;;;10.55;100.00;99885.13;5025364;28;20533;-71
2022/11/29 00:16:04;;;;;;;22.75;12.00;;;;;;;10.54;100.00;99884.25;5014191;28;20152;-71
2022/11/29 00:18:30;;;;;;;21.52;11.82;;;;;;;10.61;100.00;99898.19;5011301;28;20034;-71
2022/11/29 00:20:55;;;;;;;20.90;11.75;;;;;;;10.60;100.00;99897.34;5011032;28;20026;-71
2022/11/29 00:23:21;;;;;;;21.05;11.85;;;;;;;10.59;100.00;99895.59;5009572;28;20543;-71
2022/11/29 00:25:46;;;;;;;20.17;11.18;;;;;;;10.55;100.00;99890.44;5026399;28;20036;-71
2022/11/29 00:28:11;;;;;;;19.67;11.50;;;;;;;10.58;100.00;99899.19;5030407;28;20501;-71
2022/11/29 00:30:37;;;;;;;16.70;10.10;;;;;;;10.58;100.00;99883.22;5029359;28;20037;-70
2022/11/29 00:33:03;;;;;;;16.25;10.43;;;;;;;10.57;100.00;99886.81;5024687;28;20034;-71
2022/11/29 00:35:29;;;;;;;18.52;10.85;;;;;;;10.60;100.00;99884.06;5024874;28;20036;-71
2022/11/29 00:37:54;;;;;;;23.58;12.35;;;;;;;10.59;100.00;99881.47;5011071;28;20109;-71
2022/11/29 00:40:19;;;;;;;21.98;12.52;;;;;;;10.61;100.00;99882.25;5011074;28;20026;-71
2022/11/29 00:42:45;;;;;;;26.88;12.43;;;;;;;10.55;100.00;99878.03;5010697;28;20096;-71
2022/11/29 00:45:11;;;;;;;21.70;11.10;;;;;;;10.55;100.00;99888.66;5011864;28;20030;-71
2022/11/29 00:47:36;;;;;;;20.45;10.73;;;;;;;10.54;100.00;99886.91;5044150;28;20030;-71
2022/11/29 00:50:02;;;;;;;16.60;10.70;;;;;;;10.52;100.00;99887.91;5024008;28;20079;-71
2022/11/29 00:52:28;;;;;;;19.45;10.82;;;;;;;10.50;100.00;99885.28;5021847;28;20060;-71
2022/11/29 00:54:53;;;;;;;17.05;10.35;;;;;;;10.48;100.00;99891.56;5010244;28;20188;-71
2022/11/29 00:57:19;;;;;;;18.83;9.85;;;;;;;10.46;100.00;99896.94;5009121;28;20030;-70
2022/11/29 00:59:44;;;;;;;15.98;9.20;;;;;;;10.46;100.00;99891.63;5010591;28;20072;-70
2022/11/29 01:02:09;;;;;;;17.50;9.95;;;;;;;10.49;100.00;99895.97;5013241;28;20067;-70
2022/11/29 01:04:35;;;;;;;17.73;10.90;;;;;;;10.49;100.00;99894.16;5025809;28;20069;-70
2022/11/29 01:07:01;;;;;;;18.38;9.77;;;;;;;10.47;100.00;99896.03;5029739;28;20078;-71
2022/11/29 01:09:26;;;;;;;17.40;11.20;;;;;;;10.49;100.00;99899.50;5011357;28;20057;-70
2022/11/29 01:11:52;;;;;;;18.48;10.77;;;;;;;10.53;100.00;99903.78;5015686;28;20037;-70
2022/11/29 01:14:17;;;;;;;22.58;11.27;;;;;;;10.49;100.00;99898.66;5009540;28;20030;-70
2022/11/29 01:16:43;;;;;;;19.65;11.13;;;;;;;10.50;100.00;99901.25;5010646;28;20021;-70
2022/11/29 01:19:08;;;;;;;18.00;10.48;;;;;;;10.49;100.00;99904.81;5015276;28;20072;-70
2022/11/29 01:21:34;;;;;;;19.73;11.18;;;;;;;10.39;100.00;99886.59;5019911;28;20032;-70
2022/11/29 01:24:00;;;;;;;14.20;8.68;;;;;;;10.38;100.00;99887.47;5010470;28;20121;-70
2022/11/29 01:26:28;;;;;;;18.50;9.43;;;;;;;10.45;100.00;99905.84;5013450;28;20029;-70
2022/11/29 01:28:55;;;;;;;18.02;9.20;;;;;;;10.48;100.00;99902.22;5029450;28;20029;-70
2022/11/29 01:31:27;;;;;;;14.93;9.07;;;;;;;10.46;100.00;99904.06;5031149;28;20018;-70
2022/11/29 01:33:58;;;;;;;13.70;9.00;;;;;;;10.47;100.00;99901.34;5029243;28;20188;-70
2022/11/29 01:36:24;;;;;;;15.68;8.38;;;;;;;10.41;100.00;99906.88;5030706;28;20049;-70
2022/11/29 01:38:50;;;;;;;15.77;8.13;;;;;;;10.44;100.00;99912.06;5031139;28;20091;-70
2022/11/29 01:41:21;;;;;;;16.73;8.55;;;;;;;10.38;100.00;99906.97;5019644;28;20429;-70
2022/11/29 01:43:59;;;;;;;17.60;8.27;;;;;;;10.45;100.00;99919.16;5011284;28;20084;-70
2022/11/29 01:46:26;;;;;;;18.65;8.98;;;;;;;10.45;100.00;99907.63;5013457;28;20033;-70
2022/11/29 01:48:57;;;;;;;15.07;8.10;;;;;;;10.53;100.00;99911.78;5029230;28;20017;-70
2022/11/29 01:51:23;;;;;;;17.65;8.30;;;;;;;10.51;100.00;99916.28;5030925;28;20026;-70
2022/11/29 01:53:49;;;;;;;14.73;7.38;;;;;;;10.47;100.00;99903.13;5030786;28;20075;-70
2022/11/29 01:56:15;;;;;;;20.70;7.85;;;;;;;10.49;100.00;99915.44;5031065;28;20412;-70
2022/11/29 01:58:44;;;;;;;15.52;8.15;;;;;;;10.48;100.00;99916.38;5030474;28;20026;-70
2022/11/29 02:01:09;;;;;;;12.73;7.78;;;;;;;10.47;100.00;99912.00;5029506;28;20022;-70
2022/11/29 02:03:35;;;;;;;15.32;8.05;;;;;;;10.48;100.00;99919.03;5017734;28;20101;-70
2022/11/29 02:06:02;;;;;;;15.40;9.43;;;;;;;10.54;100.00;99924.13;5023039;28;20105;-70
2022/11/29 02:08:35;;;;;;;15.25;8.18;;;;;;;10.49;100.00;99915.44;5010929;28;20414;-70
2022/11/29 02:11:40;;;;;;;14.25;8.30;;;;;;;10.47;100.00;99909.34;5035576;28;20476;-70
2022/11/29 02:14:34;;;;;;;14.52;7.47;;;;;;;10.49;100.00;99915.44;5030678;28;20049;-70
2022/11/29 02:17:30;;;;;;;12.70;7.32;;;;;;;10.46;100.00;99899.59;5030641;28;20515;-70
2022/11/29 02:20:07;;;;;;;13.18;7.18;;;;;;;10.47;100.00;99911.13;5030761;28;20036;-70
2022/11/29 02:22:54;;;;;;;15.75;8.63;;;;;;;10.47;100.00;99901.34;5030591;28;20149;-71
2022/11/29 02:25:25;;;;;;;15.32;8.57;;;;;;;10.47;100.00;99901.34;5030782;28;20163;-70
2022/11/29 02:28:08;;;;;;;17.25;8.90;;;;;;;10.50;100.00;99903.03;5030360;28;20029;-70
2022/11/29 02:30:54;;;;;;;10.85;5.68;;;;;;;10.41;100.00;99895.38;5029023;28;20494;-70
2022/11/29 02:33:29;;;;;;;13.18;6.20;;;;;;;10.44;100.00;99900.59;5030451;28;20112;-70
2022/11/29 02:35:57;;;;;;;10.20;5.47;;;;;;;10.41;100.00;99901.53;5030611;28;20108;-70
2022/11/29 02:38:34;;;;;;;11.77;5.35;;;;;;;10.38;100.00;99896.34;5030488;28;20385;-70
2022/11/29 02:41:24;;;;;;;9.98;5.65;;;;;;;10.34;100.00;99900.03;5030286;28;20026;-70
2022/11/29 02:44:17;;;;;;;9.35;4.43;;;;;;;10.30;100.00;99898.38;5028275;28;20400;-70
2022/11/29 02:46:55;;;;;;;10.15;4.93;;;;;;;10.24;100.00;99895.94;5030742;28;20593;-70
2022/11/29 02:49:39;;;;;;;9.43;4.47;;;;;;;10.10;100.00;99884.88;5033584;28;20509;-70
2022/11/29 02:52:20;;;;;;;8.95;4.18;;;;;;;10.21;100.00;99904.00;5033892;28;20108;-71
2022/11/29 02:55:05;;;;;;;12.27;4.85;;;;;;;10.21;100.00;99903.16;5033723;28;20041;-70
2022/11/29 02:57:44;;;;;;;11.93;4.13;;;;;;;10.13;100.00;99897.22;5033882;28;20040;-70
2022/11/29 03:00:16;;;;;;;8.77;4.82;;;;;;;10.13;100.00;99891.91;5033748;28;20104;-70
2022/11/29 03:02:48;;;;;;;8.15;4.13;;;;;;;10.06;100.00;99887.66;5030277;28;20049;-70
2022/11/29 03:05:26;;;;;;;10.73;4.40;;;;;;;10.12;100.00;99900.78;5013700;28;20052;-70
2022/11/29 03:08:10;;;;;;;10.85;5.03;;;;;;;10.08;100.00;99902.66;5013684;28;20433;-70
2022/11/29 03:10:51;;;;;;;;;;;;;;;10.15;100.00;99908.63;5015336;28;20140;-71
2022/11/29 03:13:42;;;;;;;8.88;4.55;;;;;;;10.12;100.00;99904.31;5013704;28;19963;-71
2022/11/29 03:16:27;;;;;;;10.38;4.47;;;;;;;10.17;100.00;99910.34;5012012;28;20042;-71
2022/11/29 03:19:16;;;;;;;7.65;4.57;;;;;;;10.10;100.00;99907.91;5015942;28;20072;-70
2022/11/29 03:22:07;;;;;;;6.97;4.72;;;;;;;10.16;100.00;99921.03;5013735;28;20482;-71
2022/11/29 03:24:49;;;;;;;9.57;3.88;;;;;;;10.17;100.00;99920.09;5013596;28;20037;-71
2022/11/29 03:27:47;;;;;;;8.25;5.82;;;;;;;10.17;100.00;99920.97;5013625;28;20029;-71
2022/11/29 03:30:16;;;;;;;13.48;5.30;;;;;;;10.20;100.00;99923.53;5013152;28;20040;-71
2022/11/29 03:32:59;;;;;;;8.68;4.25;;;;;;;10.13;100.00;99916.66;5012147;28;20394;-71
2022/11/29 03:35:37;;;;;;;6.72;3.80;;;;;;;10.19;100.00;99926.25;5013547;28;20028;-71
2022/11/29 03:38:19;;;;;;;8.20;4.22;;;;;;;10.11;100.00;99918.53;5011921;28;20030;-71
2022/11/29 03:41:16;;;;;;;9.05;4.65;;;;;;;10.16;100.00;99927.22;5015404;28;20044;-70
2022/11/29 03:43:48;;;;;;;9.43;5.35;;;;;;;10.12;100.00;99930.88;5012089;28;20052;-69
2022/11/29 03:46:33;;;;;;;12.77;6.78;;;;;;;10.16;100.00;99939.63;5029255;28;20128;-70
2022/11/29 03:49:06;;;;;;;13.80;8.32;;;;;;;10.22;100.00;99936.78;5032629;28;20079;-70
2022/11/29 03:51:50;;;;;;;10.20;5.60;;;;;;;10.19;100.00;99940.41;5032964;28;20022;-69
2022/11/29 03:54:24;;;;;;;12.88;7.65;;;;;;;10.18;100.00;99941.31;5032559;28;20104;-69
2022/11/29 03:56:49;;;;;;;;;;;;;;;10.19;100.00;99948.38;5032534;28;20385;-69
2022/11/29 03:59:42;;;;;;;27.08;18.52;;;;;;;10.22;100.00;99942.97;5032076;28;19913;-70
2022/11/29 04:02:19;;;;;;;40.78;31.75;;;;;;;10.22;100.00;99942.09;5032495;28;20122;-69
2022/11/29 04:05:09;;;;;;;15.93;11.63;;;;;;;10.23;100.00;99949.16;5032567;28;20037;-69
2022/11/29 04:07:56;;;;;;;10.85;5.20;;;;;;;10.14;100.00;99947.66;5032297;28;20108;-69
2022/11/29 04:10:30;;;;;;;12.68;5.57;;;;;;;10.13;100.00;99953.88;5028413;28;20092;-69
2022/11/29 04:13:24;;;;;;;16.13;5.07;;;;;;;10.08;100.00;99931.88;5012675;28;20147;-70
2022/11/29 04:16:09;;;;;;;13.23;6.20;;;;;;;10.12;100.00;99946.84;5012602;28;20050;-70
2022/11/29 04:18:34;;;;;;;13.57;5.22;;;;;;;10.10;100.00;99940.69;5012521;28;20449;-71
2022/11/29 04:21:03;;;;;;;21.05;6.43;;;;;;;10.02;100.00;99950.66;5011215;28;20030;-71
2022/11/29 04:23:37;;;;;;;13.75;5.80;;;;;;;10.01;100.00;99953.38;5012443;28;20026;-69
2022/11/29 04:26:21;;;;;;;11.35;4.85;;;;;;;10.06;100.00;99957.63;5012560;28;20112;-69
2022/11/29 04:29:05;;;;;;;;;;;;;;;10.09;100.00;99954.91;5012723;28;20132;-69
2022/11/29 04:31:39;;;;;;;11.30;6.50;;;;;;;10.11;100.00;99966.38;5012395;28;19913;-69
2022/11/29 04:34:07;;;;;;;12.02;5.90;;;;;;;10.13;100.00;99958.34;5014716;28;20474;-69
2022/11/29 04:37:10;;;;;;;27.33;15.63;;;;;;;10.15;100.00;99967.09;5012078;28;20034;-69
2022/11/29 04:40:03;;;;;;;55.90;36.88;;;;;;;10.07;100.00;99956.69;5012031;28;20038;-69
2022/11/29 04:42:50;;;;;;;21.57;10.70;;;;;;;10.12;100.00;99972.53;5011670;28;20034;-69
2022/11/29 04:45:18;;;;;;;30.65;19.15;;;;;;;10.12;100.00;99968.09;5011191;28;20296;-69
2022/11/29 04:48:24;;;;;;;20.75;15.55;;;;;;;10.14;100.00;99966.25;5011390;28;20521;-69
2022/11/29 04:51:22;;;;;;;26.02;20.42;;;;;;;10.14;100.00;99968.91;5011301;28;20029;-70
2022/11/29 04:53:59;;;;;;;22.40;15.30;;;;;;;10.16;100.00;99974.19;4983338;28;20048;-69
2022/11/29 04:56:27;;;;;;;39.58;30.30;;;;;;;10.10;100.00;99975.25;5019072;28;20017;-70
2022/11/29 04:59:03;;;;;;;55.35;37.85;;;;;;;10.09;100.00;99976.16;5010563;28;20030;-70
2022/11/29 05:01:40;;;;;;;138.65;96.75;;;;;;;10.09;100.00;99977.94;5022039;28;20369;-70
2022/11/29 05:04:20;;;;;;;208.25;151.77;;;;;;;10.07;100.00;99979.75;5026508;28;20048;-70
2022/11/29 05:07:07;;;;;;;122.80;95.78;;;;;;;10.05;100.00;99981.59;5031007;28;20115;-70
2022/11/29 05:09:54;;;;;;;37.72;32.05;;;;;;;10.08;100.00;99986.84;5031312;28;20029;-70
2022/11/29 05:12:31;;;;;;;43.95;34.78;;;;;;;10.08;100.00;99976.22;5027087;28;20026;-69
2022/11/29 05:15:26;;;;;;;39.08;35.05;;;;;;;10.04;100.00;99971.88;5031333;28;20029;-69
2022/11/29 05:18:20;;;;;;;22.88;16.70;;;;;;;10.08;100.00;99979.72;5031141;28;20025;-69
2022/11/29 05:21:00;;;;;;;21.27;12.00;;;;;;;10.11;100.00;99977.00;5011494;28;20029;-69
2022/11/29 05:23:59;;;;;;;21.08;8.70;;;;;;;10.14;100.00;99982.22;5011496;28;20029;-69
2022/11/29 05:26:42;;;;;;;15.10;5.85;;;;;;;10.13;100.00;99985.75;5011443;28;20018;-70
2022/11/29 05:29:17;;;;;;;14.17;5.63;;;;;;;10.20;100.00;99995.28;5011392;28;20482;-69
2022/11/29 05:32:01;;;;;;;9.23;4.63;;;;;;;10.16;100.00;99993.66;5011294;28;20033;-68
2022/11/29 05:34:43;;;;;;;12.68;4.75;;;;;;;10.14;100.00;99986.66;5011536;28;20484;-69
2022/11/29 05:37:11;;;;;;;8.43;5.20;;;;;;;10.17;100.00;99992.75;5011213;28;20029;-70
2022/11/29 05:39:43;;;;;;;25.70;5.43;;;;;;;10.20;100.00;99989.97;5030651;28;20033;-68
2022/11/29 05:42:23;;;;;;;51.17;8.70;;;;;;;10.24;100.00;99994.28;5029549;28;20025;-69
2022/11/29 05:44:59;;;;;;;14.23;5.70;;;;;;;10.20;100.00;99997.97;5030986;28;20031;-69
2022/11/29 05:47:50;;;;;;;20.58;4.28;;;;;;;10.17;100.00;99992.75;5030809;28;20099;-69
2022/11/29 05:50:48;;;;;;;16.20;4.13;;;;;;;10.13;100.00;99988.44;5024974;28;20091;-69
2022/11/29 05:53:31;;;;;;;12.15;4.00;;;;;;;10.12;100.00;99989.34;5026226;28;20481;-69
2022/11/29 05:56:32;;;;;;;7.22;3.40;;;;;;;10.13;100.00;99992.88;5030573;28;20484;-69
2022/11/29 05:59:02;;;;;;;7.63;4.05;;;;;;;10.13;100.00;99996.41;5020583;28;20148;-69
2022/11/29 06:01:39;;;;;;;11.60;3.88;;;;;;;10.14;100.00;99999.94;5029320;28;20385;-69
2022/11/29 06:04:16;;;;;;;10.15;4.30;;;;;;;10.09;100.00;100000.09;5030766;28;20409;-69
2022/11/29 06:07:10;;;;;;;10.77;4.38;;;;;;;10.12;100.00;100004.41;5030914;28;20037;-69
2022/11/29 06:09:56;;;;;;;9.52;3.40;;;;;;;10.14;100.00;100013.22;5030699;28;20095;-69
2022/11/29 06:12:23;;;;;;;7.50;3.80;;;;;;;10.11;100.00;100014.19;5011053;28;20038;-69
2022/11/29 06:15:33;;;;;;;10.63;4.43;;;;;;;10.12;100.00;100009.72;5010847;28;20022;-69
2022/11/29 06:18:21;;;;;;;7.50;3.67;;;;;;;10.12;100.00;100017.72;4975087;28;20045;-69
2022/11/29 06:20:59;;;;;;;10.40;3.97;;;;;;;10.12;100.00;100015.06;5014890;28;20556;-69
2022/11/29 06:23:47;;;;;;;7.55;4.00;;;;;;;10.12;100.00;100013.28;5013440;28;20072;-70
2022/11/29 06:26:50;;;;;;;8.35;4.22;;;;;;;10.13;100.00;100022.97;5014635;28;20022;-69
2022/11/29 06:29:27;;;;;;;9.98;4.30;;;;;;;10.06;100.00;100025.84;5013077;28;20032;-69
2022/11/29 06:32:33;;;;;;;11.68;5.05;;;;;;;10.08;100.00;100029.38;5014603;28;20072;-69
2022/11/29 06:35:08;;;;;;;10.40;4.32;;;;;;;10.09;100.00;100031.09;5033399;28;20073;-69
2022/11/29 06:37:40;;;;;;;12.48;4.43;;;;;;;10.04;100.00;100036.53;5034073;28;20025;-70
2022/11/29 06:40:11;;;;;;;12.82;4.38;;;;;;;9.94;100.00;100024.44;5032386;28;20025;-69
2022/11/29 06:42:37;;;;;;;11.85;5.00;;;;;;;9.97;100.00;100024.31;5014431;28;20032;-69
2022/11/29 06:45:03;;;;;;;9.73;4.32;;;;;;;10.04;100.00;100031.22;5014432;28;20030;-69
2022/11/29 06:47:38;;;;;;;13.20;5.85;;;;;;;10.11;100.00;100040.78;5017199;28;20136;-69
2022/11/29 06:50:23;;;;;;;12.05;5.03;;;;;;;10.09;100.00;100047.91;5015414;28;20030;-70
2022/11/29 06:53:24;;;;;;;14.10;5.38;;;;;;;10.11;100.00;100043.44;5015407;28;20375;-70
2022/11/29 06:56:03;;;;;;;14.77;5.40;;;;;;;10.09;100.00;100044.38;5019078;28;20128;-69
2022/11/29 06:58:47;;;;;;;12.27;5.03;;;;;;;10.03;100.00;100050.72;5034722;28;20025;-68
2022/11/29 07:01:25;;;;;;;15.00;5.75;;;;;;;9.95;100.00;100044.75;5033761;28;20080;-67
2022/11/29 07:04:02;;;;;;;7.55;4.80;;;;;;;9.99;100.00;100062.38;5033746;28;20115;-68
2022/11/29 07:06:28;;;;;;;15.00;5.95;;;;;;;9.98;100.00;100059.75;5035537;28;20397;-69
2022/11/29 07:09:09;;;;;;;15.95;5.28;;;;;;;9.98;100.00;100060.59;5015518;28;20029;-67
2022/11/29 07:11:35;;;;;;;15.18;6.63;;;;;;;9.97;100.00;100056.22;5019675;28;20868;-67
2022/11/29 07:14:00;;;;;;;15.60;5.50;;;;;;;9.97;100.00;100060.66;5013297;28;20026;-67
2022/11/29 07:16:33;;;;;;;12.10;5.57;;;;;;;9.97;100.00;100064.19;5026286;28;20107;-67
2022/11/29 07:19:38;;;;;;;11.60;6.28;;;;;;;9.99;100.00;100062.38;5032894;28;20774;-67
2022/11/29 07:22:25;;;;;;;12.57;5.05;;;;;;;10.01;100.00;100065.84;5031272;28;20037;-68
2022/11/29 07:25:11;;;;;;;11.98;5.07;;;;;;;10.02;100.00;100072.00;5031219;28;20033;-67
2022/11/29 07:28:01;;;;;;;12.52;5.30;;;;;;;9.94;100.00;100063.41;5032993;28;20029;-68
2022/11/29 07:30:42;;;;;;;20.77;6.40;;;;;;;10.02;100.00;100072.91;5028674;28;20364;-68
2022/11/29 07:33:23;;;;;;;13.43;5.35;;;;;;;9.99;100.00;100056.16;5029713;28;20035;-68
2022/11/29 07:36:17;;;;;;;12.35;5.13;;;;;;;10.02;100.00;100070.25;5029985;28;20034;-68
2022/11/29 07:39:00;;;;;;;18.42;6.55;;;;;;;10.05;100.00;100072.78;5032009;28;20563;-68
2022/11/29 07:41:45;;;;;;;14.35;5.90;;;;;;;10.07;100.00;100076.28;5018358;28;20382;-69
2022/11/29 07:44:34;;;;;;;15.23;6.15;;;;;;;10.08;100.00;100083.38;5011401;28;20041;-68
2022/11/29 07:47:00;;;;;;;11.50;5.03;;;;;;;10.13;100.00;100078.78;5012166;28;20512;-68
2022/11/29 07:49:25;;;;;;;11.93;5.30;;;;;;;10.07;100.00;100070.97;5021817;28;20022;-67
2022/11/29 07:51:53;;;;;;;11.90;4.95;;;;;;;10.16;100.00;100084.03;5030446;28;20025;-68
2022/11/29 07:54:19;;;;;;;9.02;4.90;;;;;;;10.15;100.00;100090.25;5030404;28;20033;-68
2022/11/29 07:56:44;;;;;;;9.15;4.78;;;;;;;10.12;100.00;100090.34;5030854;28;20032;-68
2022/11/29 07:59:11;;;;;;;10.20;5.05;;;;;;;10.12;100.00;100085.03;5031963;28;20036;-68
2022/11/29 08:01:36;;;;;;;9.73;6.30;;;;;;;10.16;100.00;100092.00;5032326;28;20037;-67
2022/11/29 08:04:02;;;;;;;12.10;6.47;;;;;;;10.14;100.00;100091.19;5031988;28;20045;-68
2022/11/29 08:06:27;;;;;;;11.88;6.47;;;;;;;10.09;100.00;100090.44;5032323;28;20041;-68
2022/11/29 08:08:56;;;;;;;12.80;6.70;;;;;;;10.11;100.00;100093.94;5032486;28;20477;-68
2022/11/29 08:11:21;;;;;;;8.93;5.00;;;;;;;10.04;100.00;100092.31;5020834;28;20030;-68
2022/11/29 08:13:47;;;;;;;12.05;6.03;;;;;;;10.14;100.00;100106.25;5013197;28;20713;-68
2022/11/29 08:16:17;;;;;;;14.25;6.05;;;;;;;10.12;100.00;100111.59;5043849;28;20021;-68
2022/11/29 08:18:43;;;;;;;15.43;6.38;;;;;;;10.14;100.00;100108.91;5020986;28;20024;-68
2022/11/29 08:21:08;;;;;;;11.45;5.85;;;;;;;10.13;100.00;100102.72;5013132;28;20057;-68
2022/11/29 08:23:33;;;;;;;12.93;6.82;;;;;;;10.07;100.00;100097.53;5013239;28;20397;-68
2022/11/29 08:26:01;;;;;;;14.27;6.43;;;;;;;10.21;100.00;100116.63;5047062;28;20022;-69
2022/11/29 08:28:27;;;;;;;15.05;6.90;;;;;;;10.23;100.00;100117.47;5028842;28;20524;-67
2022/11/29 08:31:06;;;;;;;12.73;6.55;;;;;;;10.20;100.00;100103.41;5032009;28;20025;-71
2022/11/29 08:33:37;;;;;;;12.73;6.03;;;;;;;10.22;100.00;100118.41;5031853;28;20036;-68
2022/11/29 08:36:14;;;;;;;13.68;6.93;;;;;;;10.25;100.00;100123.63;5013128;28;20037;-68
2022/11/29 08:38:40;;;;;;;11.02;6.07;;;;;;;10.22;100.00;100113.09;5020017;28;20100;-68
2022/11/29 08:41:07;;;;;;;13.43;6.88;;;;;;;10.26;100.00;100124.50;5021556;28;20113;-69
2022/11/29 08:43:33;;;;;;;13.20;7.13;;;;;;;10.30;100.00;100131.44;5012069;28;20021;-68
2022/11/29 08:45:59;;;;;;;13.30;6.57;;;;;;;10.29;100.00;100117.31;5014733;28;20572;-68
2022/11/29 08:48:25;;;;;;;11.18;7.00;;;;;;;10.37;100.00;100117.06;5014434;28;20025;-68
2022/11/29 08:50:52;;;;;;;12.45;6.60;;;;;;;10.41;100.00;100135.53;5014452;28;20037;-68
2022/11/29 08:56:02;;;;;;;12.60;6.22;;;;;;;10.43;100.00;100143.47;5022755;28;20063;-68
2022/11/29 08:58:28;;;;;;;12.05;5.53;;;;;;;10.40;100.00;100127.59;5011475;28;20666;-68
2022/11/29 09:00:54;;;;;;;13.32;6.55;;;;;;;10.47;100.00;100139.81;5032478;28;20433;-68
2022/11/29 09:06:06;;;;;;;16.60;6.57;;;;;;;10.51;100.00;100150.28;5025641;28;20040;-69
2022/11/29 09:08:31;;;;;;;14.10;6.75;;;;;;;10.50;100.00;100145.03;5022663;28;20131;-69
2022/11/29 09:10:57;;;;;;;13.55;6.95;;;;;;;10.55;100.00;100154.63;5020815;28;20093;-69
2022/11/29 09:13:22;;;;;;;13.63;6.40;;;;;;;10.54;100.00;100152.00;5022067;28;20167;-69
2022/11/29 09:15:48;;;;;;;13.77;6.88;;;;;;;10.57;100.00;100152.78;5020970;28;20029;-69
2022/11/29 09:18:13;;;;;;;14.13;7.60;;;;;;;10.60;100.00;100160.66;5010867;28;20112;-69
2022/11/29 09:20:42;;;;;;;14.27;6.72;;;;;;;10.54;100.00;100149.34;5015648;28;20061;-68
2022/11/29 09:23:08;;;;;;;12.70;8.00;;;;;;;10.34;100.00;100144.63;5012638;28;20099;-67
2022/11/29 09:25:33;;;;;;;13.95;7.50;;;;;;;10.38;100.00;100167.53;5024310;28;20029;-67
2022/11/29 09:28:01;;;;;;;12.75;7.03;;;;;;;10.38;100.00;100167.53;5027552;28;20029;-67
2022/11/29 09:30:30;;;;;;;11.38;6.80;;;;;;;10.37;100.00;100164.94;5009897;28;20453;-68
2022/11/29 09:33:01;;;;;;;12.20;7.03;;;;;;;10.39;100.00;100174.59;5020812;28;20033;-67
2022/11/29 09:35:27;;;;;;;13.48;6.00;;;;;;;10.40;100.00;100175.47;5017197;28;20068;-67
2022/11/29 09:37:52;;;;;;;14.82;5.63;;;;;;;10.40;100.00;100176.34;5026869;28;20044;-68
2022/11/29 09:40:24;;;;;;;10.75;5.63;;;;;;;10.41;100.00;100183.41;5026106;28;20030;-68
2022/11/29 09:43:22;;;;;;;10.88;5.63;;;;;;;10.42;100.00;100179.84;5028049;28;20645;-68
2022/11/29 09:45:54;;;;;;;15.07;5.93;;;;;;;10.44;100.00;100187.78;5007846;28;20128;-67
2022/11/29 09:48:32;;;;;;;10.70;5.55;;;;;;;10.45;100.00;100190.38;5022328;28;20532;-68
2022/11/29 09:51:13;;;;;;;11.88;6.22;;;;;;;10.49;100.00;100191.16;5019717;28;20097;-68
2022/11/29 09:53:54;;;;;;;15.23;7.30;;;;;;;10.52;100.00;100186.63;5012156;28;20025;-67
2022/11/29 09:56:39;;;;;;;14.40;6.03;;;;;;;10.48;100.00;100184.97;5030932;28;20037;-67
2022/11/29 09:59:15;;;;;;;12.13;6.10;;;;;;;10.62;100.00;100192.53;5029180;28;20020;-67
2022/11/29 10:01:49;;;;;;;10.73;6.25;;;;;;;10.67;100.00;100195.06;5015990;28;20029;-67
2022/11/29 10:04:24;;;;;;;10.68;6.25;;;;;;;10.70;100.00;100190.53;5037365;28;20049;-68
2022/11/29 10:07:27;;;;;;;13.70;7.03;;;;;;;10.77;100.00;100191.19;5026268;28;20037;-67
2022/11/29 10:10:03;;;;;;;9.55;5.53;;;;;;;10.75;100.00;100193.03;5014985;28;20050;-67
2022/11/29 10:12:40;;;;;;;12.40;6.50;;;;;;;10.84;100.00;100190.94;5037565;28;20737;-67
2022/11/29 10:15:23;;;;;;;10.45;5.43;;;;;;;10.97;100.00;100191.47;5025547;28;20045;-67
2022/11/29 10:17:57;;;;;;;14.05;6.55;;;;;;;11.11;100.00;100186.56;5023141;28;20446;-68
2022/11/29 10:20:26;;;;;;;15.48;7.13;;;;;;;11.20;100.00;100191.59;5019568;28;20030;-68
2022/11/29 10:22:58;;;;;;;12.50;5.93;;;;;;;11.22;100.00;100182.63;5028700;28;20025;-69
2022/11/29 10:25:44;;;;;;;15.65;7.38;;;;;;;11.30;100.00;100177.91;5019205;28;20532;-67
2022/11/29 10:28:14;;;;;;;12.93;6.97;;;;;;;11.38;100.00;100191.00;5021909;28;20040;-67
2022/11/29 10:30:41;;;;;;;14.80;7.30;;;;;;;11.40;100.00;100189.16;5016109;28;20368;-69
2022/11/29 10:33:19;;;;;;;16.38;6.97;;;;;;;11.43;100.00;100189.06;5015143;28;20103;-68
2022/11/29 10:35:48;;;;;;;11.80;6.82;;;;;;;11.43;100.00;100189.06;5020550;28;20104;-68
2022/11/29 10:38:14;;;;;;;9.88;5.82;;;;;;;11.49;100.00;100178.19;5017890;28;20066;-70
2022/11/29 10:40:44;;;;;;;14.55;7.25;;;;;;;11.69;100.00;100189.06;5024447;28;20474;-69
2022/11/29 10:43:10;;;;;;;11.60;5.95;;;;;;;11.71;100.00;100179.25;5029798;28;20021;-68
2022/11/29 10:45:49;;;;;;;12.20;6.10;;;;;;;11.90;100.00;100186.53;5014515;28;20029;-69
2022/11/29 10:48:19;;;;;;;12.57;7.18;;;;;;;11.82;100.00;100185.06;5014402;28;20548;-68
2022/11/29 10:50:48;;;;;;;12.27;6.15;;;;;;;11.88;100.00;100176.84;5024244;28;20492;-69
2022/11/29 10:53:16;;;;;;;12.77;6.30;;;;;;;11.86;100.00;100181.38;5022663;28;20032;-68
2022/11/29 10:55:54;;;;;;;12.40;6.20;;;;;;;11.83;100.00;100184.13;5014766;28;20485;-68
2022/11/29 10:58:24;;;;;;;13.45;5.72;;;;;;;11.84;100.00;100173.41;5022213;28;20103;-68
2022/11/29 11:01:07;;;;;;;17.08;6.22;;;;;;;11.93;100.00;100180.22;5022776;28;20045;-68
2022/11/29 11:03:41;;;;;;;15.68;6.10;;;;;;;12.01;100.00;100183.47;5032704;28;20116;-69
2022/11/29 11:06:23;;;;;;;12.88;6.70;;;;;;;12.06;100.00;100176.19;5021607;28;20029;-68
2022/11/29 11:08:52;;;;;;;14.60;5.88;;;;;;;12.05;100.00;100176.25;5012208;28;20034;-68
2022/11/29 11:11:31;;;;;;;12.57;6.05;;;;;;;12.04;100.00;100178.06;5018986;28;20116;-68
2022/11/29 11:13:59;;;;;;;12.32;6.75;;;;;;;11.99;100.00;100177.34;5027312;28;20132;-68
2022/11/29 11:16:25;;;;;;;15.20;7.05;;;;;;;11.86;100.00;100168.91;5031078;28;20475;-68
2022/11/29 11:18:52;;;;;;;11.95;6.40;;;;;;;11.95;100.00;100173.03;5019205;28;20018;-69
2022/11/29 11:21:20;;;;;;;11.15;5.85;;;;;;;11.98;100.00;100172.94;5031636;28;20034;-68
2022/11/29 11:24:01;;;;;;;12.00;5.38;;;;;;;11.97;100.00;100176.53;5046839;28;20697;-68
2022/11/29 11:26:40;;;;;;;14.02;5.63;;;;;;;12.01;100.00;100182.63;5024698;28;20025;-69
2022/11/29 11:29:17;;;;;;;11.30;6.07;;;;;;;12.02;100.00;100179.91;5012456;28;20373;-68
2022/11/29 11:31:50;;;;;;;14.57;5.68;;;;;;;11.91;100.00;100174.06;5018791;28;20061;-68
2022/11/29 11:34:32;;;;;;;11.35;5.22;;;;;;;11.97;100.00;100186.31;5028770;28;20031;-68
2022/11/29 11:37:13;;;;;;;12.50;6.00;;;;;;;11.98;100.00;100188.06;5027708;28;20036;-68
2022/11/29 11:39:43;;;;;;;8.90;4.82;;;;;;;12.02;100.00;100185.25;5026754;28;20143;-68
2022/11/29 11:44:56;;;;;;;9.90;5.57;;;;;;;12.11;100.00;100186.72;5020464;28;20108;-69
2022/11/29 11:47:26;;;;;;;12.93;5.72;;;;;;;12.12;100.00;100188.44;5033177;28;20025;-68
2022/11/29 11:50:01;;;;;;;11.68;5.72;;;;;;;12.13;100.00;100193.72;5032291;28;20025;-68
2022/11/29 11:52:30;;;;;;;11.02;5.22;;;;;;;12.16;100.00;100192.75;5015928;28;20038;-69
2022/11/29 11:54:59;;;;;;;11.35;5.35;;;;;;;12.17;100.00;100195.34;5024957;28;20488;-69
2022/11/29 11:57:26;;;;;;;9.82;4.90;;;;;;;12.20;100.00;100195.25;5025308;28;20095;-69
2022/11/29 11:59:54;;;;;;;7.82;4.32;;;;;;;12.24;100.00;100194.19;5019905;28;20034;-68